Biggs Army Air Field (Fort Bliss) Fort Bliss,El Paso US
ICAO: KBIF
IATA: BIF
Category: Medium
Scheduled Services: No

Elevation: 3946 ft
TransAlt. 18000 ft.

Airport Communications:
EL PASO APP:119.15
EL PASO CLNC DEL:125
EL PASO DEP:121.3
GND:121.6
ANG OPS:49.95
PTD:122.7
TWR:127.9

KBIF Zoom In..

Runways:

(A) RW 03 length 13554 ft width 150 ft
---- / hdg 32

(B) RW 21 length 13554 ft width 150 ft
---- / hdg 212

Location; KBIF
Day. 21 / Time. 04.58 Zulu
* Altimeter: 30.01
* Temperature: 32° c. 89.6°f.
* Wind from: 090° Speed 07 kn.
Dewpoint: 04° c.
Visibility: 10 Statute Miles.
Clouds: Clear (automated report).

KBIF 210458Z AUTO 09007KT 10SM CLR 32/04 A3001 RMK AO2 SLP083 T03210040 $


Wind From 090°
Speed 07 kn.

 
 
jpsmedia.com for Web Design worldairports.se 2018   terms of use